Adrian, MN

12:56 PM CST on December 10, 2016 (GMT -0600)
Little Rock TWP | | Change Station
Active Advisory: Winter Weather Advisory

Elev 1594 ft 43.56 °N, 95.93 °W | Updated 34 seconds ago

Snow
Snow
11.4 °F
Feels Like -5 °F
N
15.0
Wind Variable Wind from East

Today
High -- | Low -- °F
--% Chance of Precip.
Yesterday
High -- | Low -- °F
Precip. -- in
Pressure 30.27 in
Visibility 3.0 miles
Clouds Scattered Clouds 1500 ft
Scattered Clouds 3200 ft
Overcast 5500 ft
Windchill -5 °F
Dew Point 9 °F
Humidity 93%
Rainfall 0.00 in
Snow Depth Not available.
7:46 AM 4:46 PM
Waxing Gibbous, 85% visible
METAR KLYV 101837Z AUTO 11009KT 3SM -SN SCT015 SCT032 OVC055 M10/M13 A3027 RMK AO2
Pressure 30.27 in
Visibility 3.0 miles
Clouds Scattered Clouds 1500 ft
Scattered Clouds 3200 ft
Overcast 5500 ft
Windchill -5 °F
Dew Point 9 °F
Humidity 93%
Rainfall 0.00 in
Snow Depth Not available.
7:46 AM 4:46 PM
Waxing Gibbous, 85% visible
METAR KLYV 101837Z AUTO 11009KT 3SM -SN SCT015 SCT032 OVC055 M10/M13 A3027 RMK AO2

10-Day Weather Forecast

Almanac

Astronomy

Dec. 10, 2016 Rise Set
Actual Time
Civil Twilight
Nautical Twilight
Astronomical Twilight
Moon
Length of Visible Light
Length of Day
Tomorrow will be .
, % of the Moon is Illuminated

Today's Extremes

State Highs State Lows

Community

WunderPhotos

Upload Photos

1,956,620 photos uploaded!

WunderBlog® & News

Nearby

Air Quality

  Air Quality AQ Index Pollutant
Not available.

Snow Depth

Station Depth Elevation

Earthquake Activity

City Distance Mag. Time & Date
Minimum magnitude displayed is 2.5.

Coastal Water Temperatures

Place Temperature

Stations

Nearby Weather Stations

Station Location Temp. Windchill Dew Point Humidity Wind Precip. Elev Updated Type
                   

Watches & Warnings

Winter Weather Advisory
Issued: 9:52 AM CST Dec. 10, 2016 – National Weather Service

... Winter Weather Advisory remains in effect until noon CST
Sunday...

* timing... snow will continue off and on into Sunday morning.
Periods of heavy snow may be possible over portions of
southwestern Minnesota and northwestern Iowa into Sunday
morning.

* Accumulations... snowfall amounts of 4 to 6 inches are expected
along Interstate 29 from Brookings to Beresford... with locally
higher amounts up to 8 inches possible from Marshall to
Pipestone... Worthington... Jackson... Spencer... and the spirit
lakes area.

* Visibility... the visibility will fall to a half a mile at
times.

Precautionary/preparedness actions...

A Winter Weather Advisory for snow means that periods of snow
will cause primarily travel difficulties. Be prepared for snow
covered roads and limited visibilities... and use caution while
driving.